createdAt,value
2022-10-24T00:11:15.908Z,5.75
2022-10-24T00:18:04.754Z,6.20
2022-10-24T00:24:50.374Z,6.40
2022-10-24T00:31:35.969Z,5.70
2022-10-24T00:38:23.895Z,5.90
2022-10-24T00:45:51.520Z,5.90
2022-10-24T00:52:40.996Z,5.82
2022-10-24T00:59:30.615Z,6.68
2022-10-24T01:06:37.357Z,6.15
2022-10-24T01:13:34.362Z,6.28
2022-10-24T01:20:50.439Z,6.65
2022-10-24T01:27:59.088Z,6.00
2022-10-24T01:34:53.621Z,5.47
2022-10-24T01:41:39.522Z,6.20
2022-10-24T01:48:28.632Z,5.35
2022-10-24T01:55:17.001Z,6.10
2022-10-24T02:02:08.562Z,6.00
2022-10-24T02:08:59.881Z,5.57
2022-10-24T02:15:55.237Z,5.82
2022-10-24T02:22:50.759Z,5.35
2022-10-24T02:29:44.966Z,6.10
2022-10-24T02:36:36.009Z,5.38
2022-10-24T02:43:25.035Z,6.18
2022-10-24T03:04:01.076Z,5.72
2022-10-24T03:10:46.770Z,5.75
2022-10-24T03:17:32.270Z,6.47
2022-10-24T03:24:31.028Z,5.43
2022-10-24T03:31:25.655Z,6.00
2022-10-24T03:38:11.036Z,5.57
2022-10-24T03:44:59.012Z,5.83
2022-10-24T03:51:44.417Z,6.10
2022-10-24T03:58:30.248Z,5.37
2022-10-24T04:05:18.296Z,6.25
2022-10-24T04:12:03.670Z,6.63
2022-10-24T04:18:49.371Z,6.50
2022-10-24T04:25:37.337Z,5.87
2022-10-24T04:32:22.732Z,6.20
2022-10-24T04:39:08.621Z,6.20
2022-10-24T04:45:56.836Z,5.75
2022-10-24T04:52:42.881Z,5.80
2022-10-24T04:59:28.272Z,5.95
2022-10-24T05:06:16.285Z,6.10
2022-10-24T05:13:01.890Z,5.82
2022-10-24T05:19:47.259Z,6.10
2022-10-24T05:26:35.340Z,5.60
2022-10-24T05:33:20.793Z,5.50
2022-10-24T05:40:06.965Z,5.93
2022-10-24T05:46:55.358Z,5.80
2022-10-24T05:53:40.801Z,5.40
2022-10-24T06:00:26.853Z,6.13
2022-10-24T06:07:14.964Z,6.05
2022-10-24T06:14:00.337Z,6.15
2022-10-24T06:20:50.722Z,6.18
2022-10-24T06:27:40.812Z,6.65
2022-10-24T06:34:26.468Z,5.97
2022-10-24T06:41:14.180Z,5.87
2022-10-24T06:48:02.076Z,5.97
2022-10-24T06:54:47.405Z,6.38
2022-10-24T07:01:32.883Z,6.03
2022-10-24T07:08:21.078Z,6.37
2022-10-24T07:15:07.383Z,6.75
2022-10-24T07:28:42.220Z,7.22
2022-10-24T07:35:27.633Z,6.40
2022-10-24T07:42:15.000Z,6.83
2022-10-24T07:49:03.119Z,6.80
2022-10-24T07:55:48.755Z,6.45
2022-10-24T08:02:34.081Z,6.90
2022-10-24T08:09:22.076Z,6.60
2022-10-24T08:16:09.997Z,6.88
2022-10-24T08:22:55.806Z,6.22
2022-10-24T08:29:43.872Z,6.43
2022-10-24T08:36:31.908Z,6.00
2022-10-24T08:43:17.379Z,6.57
2022-10-24T08:50:09.547Z,6.10
2022-10-24T08:56:59.911Z,6.72
2022-10-24T09:03:56.009Z,6.22
2022-10-24T09:10:53.680Z,7.13
2022-10-24T09:17:42.312Z,6.40
2022-10-24T09:24:40.714Z,6.65
2022-10-24T09:31:30.333Z,6.50
2022-10-24T09:38:36.161Z,5.78
2022-10-24T09:45:35.005Z,5.95
2022-10-24T09:52:26.169Z,5.60
2022-10-24T09:59:36.242Z,5.97
2022-10-24T10:06:24.141Z,5.90
2022-10-24T10:13:24.708Z,5.70
2022-10-24T10:20:26.905Z,6.13
2022-10-24T10:27:30.403Z,5.35
2022-10-24T10:34:26.231Z,5.88
2022-10-24T10:41:22.380Z,5.10
2022-10-24T10:48:26.396Z,5.65
2022-10-24T10:55:28.200Z,5.70
2022-10-24T11:02:49.280Z,5.70
2022-10-24T11:09:44.271Z,5.20
2022-10-24T11:16:34.502Z,5.65
2022-10-24T11:23:29.209Z,5.28
2022-10-24T11:30:20.125Z,5.30
2022-10-24T11:37:17.839Z,5.22
2022-10-24T11:44:13.065Z,5.38
2022-10-24T11:51:04.098Z,5.77
2022-10-24T11:57:57.949Z,5.20
2022-10-24T12:05:04.566Z,5.30
2022-10-24T12:12:27.558Z,5.35
2022-10-24T12:19:20.959Z,4.80
2022-10-24T12:26:18.595Z,5.28
2022-10-24T12:33:15.230Z,5.25
2022-10-24T12:40:03.851Z,4.40
2022-10-24T12:46:58.277Z,4.88
2022-10-24T12:54:22.276Z,5.07
2022-10-24T13:01:27.267Z,4.68
2022-10-24T13:08:35.579Z,4.88
2022-10-24T13:15:43.082Z,4.90
2022-10-24T13:22:39.179Z,5.53
2022-10-24T13:36:48.230Z,4.53
2022-10-24T13:43:36.475Z,4.53
2022-10-24T13:50:26.699Z,5.63
2022-10-24T13:57:31.342Z,4.65
2022-10-24T14:04:19.374Z,4.78
2022-10-24T14:11:08.419Z,4.60
2022-10-24T14:18:00.462Z,4.78
2022-10-24T14:24:50.774Z,5.45
2022-10-24T14:31:38.369Z,4.72
2022-10-24T14:38:25.531Z,4.97
2022-10-24T14:45:26.928Z,3.92
2022-10-24T14:52:17.998Z,3.67
2022-10-24T14:59:07.176Z,4.68
2022-10-24T15:06:10.485Z,4.35
2022-10-24T15:13:02.730Z,4.75
2022-10-24T15:19:48.988Z,4.75
2022-10-24T15:26:40.661Z,4.35
2022-10-24T15:33:26.001Z,4.40
2022-10-24T15:40:21.443Z,4.43
2022-10-24T15:47:09.573Z,3.83
2022-10-24T15:53:56.372Z,4.40
2022-10-24T16:00:42.327Z,4.25
2022-10-24T16:07:30.343Z,4.32
2022-10-24T16:14:17.453Z,4.20
2022-10-24T16:21:03.797Z,4.65
2022-10-24T16:27:52.099Z,4.00
2022-10-24T16:34:37.609Z,4.00
2022-10-24T16:41:26.286Z,4.13
2022-10-24T16:48:14.428Z,4.57
2022-10-24T16:54:59.900Z,4.28
2022-10-24T17:01:45.807Z,4.55
2022-10-24T17:08:34.067Z,3.90
2022-10-24T17:15:22.392Z,3.85
2022-10-24T17:22:08.878Z,4.30
2022-10-24T17:28:57.326Z,3.88
2022-10-24T17:35:50.854Z,3.97
2022-10-24T17:42:37.058Z,4.13
2022-10-24T17:49:25.017Z,3.97
2022-10-24T18:03:19.395Z,4.38
2022-10-24T18:10:08.313Z,4.63
2022-10-24T18:16:54.403Z,4.63
2022-10-24T18:23:40.457Z,4.90
2022-10-24T18:38:18.687Z,4.78
2022-10-24T18:45:05.747Z,5.32
2022-10-24T18:52:03.505Z,5.60
2022-10-24T18:58:57.224Z,4.82
2022-10-24T19:05:51.899Z,4.93
2022-10-24T19:12:40.478Z,5.63
2022-10-24T19:19:34.538Z,5.88
2022-10-24T19:26:20.269Z,5.60
2022-10-24T19:33:05.620Z,5.67
2022-10-24T19:39:53.641Z,6.73
2022-10-24T19:46:39.000Z,6.57
2022-10-24T19:53:24.409Z,6.00
2022-10-24T20:00:14.524Z,5.53
2022-10-24T20:06:59.909Z,5.72
2022-10-24T20:13:45.696Z,5.30
2022-10-24T20:20:36.577Z,5.43
2022-10-24T20:27:24.536Z,5.72
2022-10-24T20:34:12.041Z,5.20
2022-10-24T20:41:04.859Z,5.00
2022-10-24T20:47:50.229Z,5.30
2022-10-24T20:54:35.644Z,5.60
2022-10-24T21:01:26.205Z,5.43
2022-10-24T21:08:11.712Z,4.53
2022-10-24T21:14:57.251Z,4.43
2022-10-24T21:21:45.330Z,4.63
2022-10-24T21:28:31.807Z,4.57
2022-10-24T21:42:05.479Z,4.38
2022-10-24T21:48:52.712Z,4.20
2022-10-24T21:55:38.048Z,4.55
2022-10-24T22:02:26.139Z,5.00
2022-10-24T22:09:15.839Z,4.20
2022-10-24T22:16:02.044Z,4.30
2022-10-24T22:22:49.978Z,4.55
2022-10-24T22:29:35.397Z,4.03
2022-10-24T22:36:42.989Z,4.50
2022-10-24T22:43:31.885Z,4.70
2022-10-24T22:50:48.425Z,4.22
2022-10-24T23:04:49.880Z,4.67
2022-10-24T23:11:36.187Z,4.20
2022-10-24T23:18:22.465Z,4.75
2022-10-24T23:25:13.860Z,4.78
2022-10-24T23:32:00.154Z,4.60
2022-10-24T23:38:47.806Z,4.68
2022-10-24T23:45:40.577Z,4.72
2022-10-24T23:52:35.779Z,4.35
2022-10-24T23:59:21.125Z,4.72
